sensor_id;sensor_type;location;lat;lon;timestamp;P1;durP1;ratioP1;P2;durP2;ratioP2
27957;SDS011;15295;42.658;23.374;2023-05-07T00:02:17;6.70;;;4.93;;
27957;SDS011;15295;42.658;23.374;2023-05-07T00:04:43;8.65;;;6.15;;
27957;SDS011;15295;42.658;23.374;2023-05-07T00:07:10;12.00;;;7.25;;
27957;SDS011;15295;42.658;23.374;2023-05-07T00:09:40;14.70;;;8.63;;
27957;SDS011;15295;42.658;23.374;2023-05-07T00:12:07;11.77;;;8.50;;
27957;SDS011;15295;42.658;23.374;2023-05-07T00:14:34;16.85;;;8.88;;
27957;SDS011;15295;42.658;23.374;2023-05-07T00:16:59;14.55;;;7.85;;
27957;SDS011;15295;42.658;23.374;2023-05-07T00:19:28;14.88;;;8.07;;
27957;SDS011;15295;42.658;23.374;2023-05-07T00:21:55;17.92;;;8.25;;
27957;SDS011;15295;42.658;23.374;2023-05-07T00:24:22;10.38;;;7.97;;
27957;SDS011;15295;42.658;23.374;2023-05-07T00:26:50;15.82;;;9.20;;
27957;SDS011;15295;42.658;23.374;2023-05-07T00:29:19;13.85;;;8.25;;
27957;SDS011;15295;42.658;23.374;2023-05-07T00:31:49;15.45;;;9.45;;
27957;SDS011;15295;42.658;23.374;2023-05-07T00:34:18;21.75;;;10.93;;
27957;SDS011;15295;42.658;23.374;2023-05-07T00:36:44;21.00;;;9.27;;
27957;SDS011;15295;42.658;23.374;2023-05-07T00:39:11;14.48;;;8.63;;
27957;SDS011;15295;42.658;23.374;2023-05-07T00:41:39;17.05;;;9.63;;
27957;SDS011;15295;42.658;23.374;2023-05-07T00:44:07;15.10;;;8.88;;
27957;SDS011;15295;42.658;23.374;2023-05-07T00:46:32;14.50;;;8.88;;
27957;SDS011;15295;42.658;23.374;2023-05-07T00:49:01;12.63;;;8.10;;
27957;SDS011;15295;42.658;23.374;2023-05-07T00:51:31;16.05;;;8.40;;
27957;SDS011;15295;42.658;23.374;2023-05-07T00:54:08;15.85;;;7.47;;
27957;SDS011;15295;42.658;23.374;2023-05-07T00:56:34;11.80;;;6.55;;
27957;SDS011;15295;42.658;23.374;2023-05-07T00:59:05;12.98;;;6.93;;
27957;SDS011;15295;42.658;23.374;2023-05-07T01:01:31;8.70;;;5.72;;
27957;SDS011;15295;42.658;23.374;2023-05-07T01:03:59;7.28;;;5.75;;
27957;SDS011;15295;42.658;23.374;2023-05-07T01:06:33;7.10;;;5.38;;
27957;SDS011;15295;42.658;23.374;2023-05-07T01:09:00;8.63;;;5.75;;
27957;SDS011;15295;42.658;23.374;2023-05-07T01:11:31;10.57;;;5.65;;
27957;SDS011;15295;42.658;23.374;2023-05-07T01:13:58;12.30;;;5.72;;
27957;SDS011;15295;42.658;23.374;2023-05-07T01:16:25;6.95;;;4.85;;
27957;SDS011;15295;42.658;23.374;2023-05-07T01:18:52;9.77;;;5.57;;
27957;SDS011;15295;42.658;23.374;2023-05-07T01:21:24;9.32;;;5.65;;
27957;SDS011;15295;42.658;23.374;2023-05-07T01:23:51;9.48;;;5.35;;
27957;SDS011;15295;42.658;23.374;2023-05-07T01:26:20;8.40;;;5.75;;
27957;SDS011;15295;42.658;23.374;2023-05-07T01:28:55;8.82;;;5.90;;
27957;SDS011;15295;42.658;23.374;2023-05-07T01:31:23;10.80;;;5.88;;
27957;SDS011;15295;42.658;23.374;2023-05-07T01:33:59;9.55;;;5.88;;
27957;SDS011;15295;42.658;23.374;2023-05-07T01:36:29;9.65;;;6.15;;
27957;SDS011;15295;42.658;23.374;2023-05-07T01:39:30;13.75;;;6.13;;
27957;SDS011;15295;42.658;23.374;2023-05-07T01:41:56;8.48;;;6.10;;
27957;SDS011;15295;42.658;23.374;2023-05-07T01:44:22;10.75;;;6.75;;
27957;SDS011;15295;42.658;23.374;2023-05-07T01:46:51;9.55;;;6.30;;
27957;SDS011;15295;42.658;23.374;2023-05-07T01:49:23;13.52;;;7.50;;
27957;SDS011;15295;42.658;23.374;2023-05-07T01:51:49;9.95;;;7.18;;
27957;SDS011;15295;42.658;23.374;2023-05-07T01:54:35;10.60;;;7.68;;
27957;SDS011;15295;42.658;23.374;2023-05-07T01:57:02;10.90;;;8.10;;
27957;SDS011;15295;42.658;23.374;2023-05-07T01:59:28;12.45;;;8.48;;
27957;SDS011;15295;42.658;23.374;2023-05-07T02:01:53;10.23;;;7.85;;
27957;SDS011;15295;42.658;23.374;2023-05-07T02:04:18;13.85;;;8.27;;
27957;SDS011;15295;42.658;23.374;2023-05-07T02:06:45;14.60;;;7.93;;
27957;SDS011;15295;42.658;23.374;2023-05-07T02:09:11;12.50;;;8.73;;
27957;SDS011;15295;42.658;23.374;2023-05-07T02:11:39;11.30;;;7.97;;
27957;SDS011;15295;42.658;23.374;2023-05-07T02:14:10;11.75;;;8.93;;
27957;SDS011;15295;42.658;23.374;2023-05-07T02:16:36;13.35;;;9.52;;
27957;SDS011;15295;42.658;23.374;2023-05-07T02:19:04;15.23;;;8.80;;
27957;SDS011;15295;42.658;23.374;2023-05-07T02:21:31;12.68;;;9.05;;
27957;SDS011;15295;42.658;23.374;2023-05-07T02:23:56;12.23;;;9.02;;
27957;SDS011;15295;42.658;23.374;2023-05-07T02:26:22;15.25;;;9.55;;
27957;SDS011;15295;42.658;23.374;2023-05-07T02:28:47;13.70;;;9.13;;
27957;SDS011;15295;42.658;23.374;2023-05-07T02:31:13;14.32;;;9.43;;
27957;SDS011;15295;42.658;23.374;2023-05-07T02:33:43;16.15;;;9.70;;
27957;SDS011;15295;42.658;23.374;2023-05-07T02:36:10;14.07;;;10.15;;
27957;SDS011;15295;42.658;23.374;2023-05-07T02:38:38;14.65;;;9.75;;
27957;SDS011;15295;42.658;23.374;2023-05-07T02:41:11;12.45;;;9.02;;
27957;SDS011;15295;42.658;23.374;2023-05-07T02:43:38;12.02;;;9.27;;
27957;SDS011;15295;42.658;23.374;2023-05-07T02:46:05;14.10;;;10.07;;
27957;SDS011;15295;42.658;23.374;2023-05-07T02:48:33;17.38;;;10.65;;
27957;SDS011;15295;42.658;23.374;2023-05-07T02:50:59;13.48;;;9.93;;
27957;SDS011;15295;42.658;23.374;2023-05-07T02:53:25;15.38;;;10.10;;
27957;SDS011;15295;42.658;23.374;2023-05-07T02:56:00;15.43;;;9.90;;
27957;SDS011;15295;42.658;23.374;2023-05-07T02:58:28;13.43;;;9.82;;
27957;SDS011;15295;42.658;23.374;2023-05-07T03:00:54;12.98;;;9.77;;
27957;SDS011;15295;42.658;23.374;2023-05-07T03:03:23;18.88;;;10.63;;
27957;SDS011;15295;42.658;23.374;2023-05-07T03:05:52;15.20;;;11.18;;
27957;SDS011;15295;42.658;23.374;2023-05-07T03:08:18;18.23;;;11.05;;
27957;SDS011;15295;42.658;23.374;2023-05-07T03:10:45;17.30;;;11.07;;
27957;SDS011;15295;42.658;23.374;2023-05-07T03:13:10;16.17;;;10.60;;
27957;SDS011;15295;42.658;23.374;2023-05-07T03:15:36;18.00;;;10.80;;
27957;SDS011;15295;42.658;23.374;2023-05-07T03:18:02;21.35;;;11.75;;
27957;SDS011;15295;42.658;23.374;2023-05-07T03:20:28;18.33;;;12.63;;
27957;SDS011;15295;42.658;23.374;2023-05-07T03:22:55;20.83;;;12.30;;
27957;SDS011;15295;42.658;23.374;2023-05-07T03:25:21;23.08;;;12.95;;
27957;SDS011;15295;42.658;23.374;2023-05-07T03:27:46;22.17;;;13.65;;
27957;SDS011;15295;42.658;23.374;2023-05-07T03:30:13;19.10;;;13.85;;
27957;SDS011;15295;42.658;23.374;2023-05-07T03:32:38;22.15;;;14.23;;
27957;SDS011;15295;42.658;23.374;2023-05-07T03:35:04;20.60;;;14.90;;
27957;SDS011;15295;42.658;23.374;2023-05-07T03:37:31;20.15;;;14.77;;
27957;SDS011;15295;42.658;23.374;2023-05-07T03:39:57;22.63;;;13.88;;
27957;SDS011;15295;42.658;23.374;2023-05-07T03:42:30;21.75;;;14.93;;
27957;SDS011;15295;42.658;23.374;2023-05-07T03:44:56;22.25;;;15.63;;
27957;SDS011;15295;42.658;23.374;2023-05-07T03:47:22;27.15;;;16.48;;
27957;SDS011;15295;42.658;23.374;2023-05-07T03:49:47;21.15;;;15.63;;
27957;SDS011;15295;42.658;23.374;2023-05-07T03:52:17;22.35;;;15.55;;
27957;SDS011;15295;42.658;23.374;2023-05-07T03:54:47;22.80;;;15.90;;
27957;SDS011;15295;42.658;23.374;2023-05-07T03:57:19;24.52;;;16.67;;
27957;SDS011;15295;42.658;23.374;2023-05-07T04:00:05;25.55;;;16.77;;
27957;SDS011;15295;42.658;23.374;2023-05-07T04:02:34;27.67;;;17.33;;
27957;SDS011;15295;42.658;23.374;2023-05-07T04:04:59;25.77;;;16.30;;
27957;SDS011;15295;42.658;23.374;2023-05-07T04:07:25;22.98;;;16.55;;
27957;SDS011;15295;42.658;23.374;2023-05-07T04:09:51;24.23;;;16.73;;
27957;SDS011;15295;42.658;23.374;2023-05-07T04:12:16;29.80;;;19.27;;
27957;SDS011;15295;42.658;23.374;2023-05-07T04:14:43;26.83;;;18.17;;
27957;SDS011;15295;42.658;23.374;2023-05-07T04:17:09;26.33;;;16.83;;
27957;SDS011;15295;42.658;23.374;2023-05-07T04:19:35;22.55;;;15.18;;
27957;SDS011;15295;42.658;23.374;2023-05-07T04:22:02;24.35;;;16.33;;
27957;SDS011;15295;42.658;23.374;2023-05-07T04:24:30;26.30;;;14.60;;
27957;SDS011;15295;42.658;23.374;2023-05-07T04:27:01;16.02;;;12.68;;
27957;SDS011;15295;42.658;23.374;2023-05-07T04:29:31;24.88;;;12.35;;
27957;SDS011;15295;42.658;23.374;2023-05-07T04:32:09;17.48;;;12.00;;
27957;SDS011;15295;42.658;23.374;2023-05-07T04:34:39;20.27;;;12.27;;
27957;SDS011;15295;42.658;23.374;2023-05-07T04:37:06;20.35;;;12.43;;
27957;SDS011;15295;42.658;23.374;2023-05-07T04:39:32;19.85;;;11.88;;
27957;SDS011;15295;42.658;23.374;2023-05-07T04:42:00;20.13;;;12.23;;
27957;SDS011;15295;42.658;23.374;2023-05-07T04:44:28;17.48;;;11.75;;
27957;SDS011;15295;42.658;23.374;2023-05-07T04:47:05;17.25;;;11.45;;
27957;SDS011;15295;42.658;23.374;2023-05-07T04:49:32;17.40;;;12.10;;
27957;SDS011;15295;42.658;23.374;2023-05-07T04:52:00;18.40;;;12.40;;
27957;SDS011;15295;42.658;23.374;2023-05-07T04:54:27;19.90;;;11.20;;
27957;SDS011;15295;42.658;23.374;2023-05-07T04:56:53;16.20;;;11.90;;
27957;SDS011;15295;42.658;23.374;2023-05-07T04:59:20;22.38;;;13.80;;
27957;SDS011;15295;42.658;23.374;2023-05-07T05:01:48;20.50;;;13.63;;
27957;SDS011;15295;42.658;23.374;2023-05-07T05:04:15;25.30;;;14.43;;
27957;SDS011;15295;42.658;23.374;2023-05-07T05:06:42;19.45;;;14.38;;
27957;SDS011;15295;42.658;23.374;2023-05-07T05:09:09;22.30;;;15.38;;
27957;SDS011;15295;42.658;23.374;2023-05-07T05:11:37;21.00;;;13.63;;
27957;SDS011;15295;42.658;23.374;2023-05-07T05:14:05;22.80;;;14.38;;
27957;SDS011;15295;42.658;23.374;2023-05-07T05:16:41;20.90;;;12.82;;
27957;SDS011;15295;42.658;23.374;2023-05-07T05:19:14;20.33;;;12.63;;
27957;SDS011;15295;42.658;23.374;2023-05-07T05:21:41;22.08;;;13.68;;
27957;SDS011;15295;42.658;23.374;2023-05-07T05:24:29;22.50;;;12.70;;
27957;SDS011;15295;42.658;23.374;2023-05-07T05:26:57;22.30;;;13.98;;
27957;SDS011;15295;42.658;23.374;2023-05-07T05:29:26;25.65;;;14.40;;
27957;SDS011;15295;42.658;23.374;2023-05-07T05:31:57;18.08;;;12.95;;
27957;SDS011;15295;42.658;23.374;2023-05-07T05:34:23;22.67;;;15.05;;
27957;SDS011;15295;42.658;23.374;2023-05-07T05:36:52;23.35;;;14.32;;
27957;SDS011;15295;42.658;23.374;2023-05-07T05:39:19;18.95;;;13.00;;
27957;SDS011;15295;42.658;23.374;2023-05-07T05:42:15;18.58;;;12.57;;
27957;SDS011;15295;42.658;23.374;2023-05-07T05:45:03;16.38;;;13.20;;
27957;SDS011;15295;42.658;23.374;2023-05-07T05:47:40;18.25;;;11.85;;
27957;SDS011;15295;42.658;23.374;2023-05-07T05:50:12;17.38;;;12.73;;
27957;SDS011;15295;42.658;23.374;2023-05-07T05:53:14;15.00;;;11.43;;
27957;SDS011;15295;42.658;23.374;2023-05-07T05:56:02;15.88;;;11.63;;
27957;SDS011;15295;42.658;23.374;2023-05-07T05:58:28;19.50;;;11.95;;
27957;SDS011;15295;42.658;23.374;2023-05-07T06:00:59;18.60;;;13.00;;
27957;SDS011;15295;42.658;23.374;2023-05-07T06:03:27;23.73;;;12.40;;
27957;SDS011;15295;42.658;23.374;2023-05-07T06:05:53;12.45;;;9.50;;
27957;SDS011;15295;42.658;23.374;2023-05-07T06:08:18;11.95;;;10.02;;
27957;SDS011;15295;42.658;23.374;2023-05-07T06:10:47;16.85;;;10.13;;
27957;SDS011;15295;42.658;23.374;2023-05-07T06:13:14;16.75;;;11.25;;
27957;SDS011;15295;42.658;23.374;2023-05-07T06:15:40;14.45;;;10.02;;
27957;SDS011;15295;42.658;23.374;2023-05-07T06:18:06;15.48;;;10.90;;
27957;SDS011;15295;42.658;23.374;2023-05-07T06:20:32;15.63;;;10.52;;
27957;SDS011;15295;42.658;23.374;2023-05-07T06:25:30;16.30;;;11.70;;
27957;SDS011;15295;42.658;23.374;2023-05-07T06:27:55;22.65;;;11.85;;
27957;SDS011;15295;42.658;23.374;2023-05-07T06:30:21;15.50;;;11.73;;
27957;SDS011;15295;42.658;23.374;2023-05-07T06:32:46;15.02;;;10.90;;
27957;SDS011;15295;42.658;23.374;2023-05-07T06:35:11;18.00;;;10.63;;
27957;SDS011;15295;42.658;23.374;2023-05-07T06:37:37;17.27;;;10.77;;
27957;SDS011;15295;42.658;23.374;2023-05-07T06:40:05;18.02;;;10.68;;
27957;SDS011;15295;42.658;23.374;2023-05-07T06:42:32;19.55;;;11.85;;
27957;SDS011;15295;42.658;23.374;2023-05-07T06:44:57;18.13;;;10.77;;
27957;SDS011;15295;42.658;23.374;2023-05-07T06:47:22;13.95;;;9.40;;
27957;SDS011;15295;42.658;23.374;2023-05-07T06:49:48;16.58;;;10.30;;
27957;SDS011;15295;42.658;23.374;2023-05-07T06:52:13;16.90;;;10.52;;
27957;SDS011;15295;42.658;23.374;2023-05-07T06:54:38;17.00;;;11.27;;
27957;SDS011;15295;42.658;23.374;2023-05-07T06:57:04;15.77;;;10.32;;
27957;SDS011;15295;42.658;23.374;2023-05-07T06:59:29;16.15;;;9.68;;
27957;SDS011;15295;42.658;23.374;2023-05-07T07:01:55;14.90;;;9.85;;
27957;SDS011;15295;42.658;23.374;2023-05-07T07:04:20;16.65;;;10.73;;
27957;SDS011;15295;42.658;23.374;2023-05-07T07:06:47;16.98;;;10.77;;
27957;SDS011;15295;42.658;23.374;2023-05-07T07:09:13;16.98;;;9.23;;
27957;SDS011;15295;42.658;23.374;2023-05-07T07:11:38;19.27;;;9.95;;
27957;SDS011;15295;42.658;23.374;2023-05-07T07:14:08;15.80;;;9.45;;
27957;SDS011;15295;42.658;23.374;2023-05-07T07:16:44;16.10;;;10.27;;
27957;SDS011;15295;42.658;23.374;2023-05-07T07:19:26;16.77;;;9.98;;
27957;SDS011;15295;42.658;23.374;2023-05-07T07:21:51;13.18;;;9.32;;
27957;SDS011;15295;42.658;23.374;2023-05-07T07:24:17;13.70;;;9.93;;
27957;SDS011;15295;42.658;23.374;2023-05-07T07:26:46;16.20;;;10.20;;
27957;SDS011;15295;42.658;23.374;2023-05-07T07:29:24;16.52;;;11.25;;
27957;SDS011;15295;42.658;23.374;2023-05-07T07:31:51;16.42;;;10.75;;
27957;SDS011;15295;42.658;23.374;2023-05-07T07:34:19;15.77;;;10.48;;
27957;SDS011;15295;42.658;23.374;2023-05-07T07:36:44;17.48;;;9.43;;
27957;SDS011;15295;42.658;23.374;2023-05-07T07:39:19;16.75;;;10.00;;
27957;SDS011;15295;42.658;23.374;2023-05-07T07:41:46;16.80;;;9.75;;
27957;SDS011;15295;42.658;23.374;2023-05-07T07:44:22;18.25;;;10.02;;
27957;SDS011;15295;42.658;23.374;2023-05-07T07:46:49;16.70;;;9.10;;
27957;SDS011;15295;42.658;23.374;2023-05-07T07:49:15;15.75;;;8.40;;
27957;SDS011;15295;42.658;23.374;2023-05-07T07:51:41;11.93;;;8.77;;
27957;SDS011;15295;42.658;23.374;2023-05-07T07:54:06;15.48;;;11.70;;
27957;SDS011;15295;42.658;23.374;2023-05-07T07:56:32;16.05;;;9.80;;
27957;SDS011;15295;42.658;23.374;2023-05-07T07:59:01;16.70;;;9.10;;
27957;SDS011;15295;42.658;23.374;2023-05-07T08:01:35;14.55;;;9.77;;
27957;SDS011;15295;42.658;23.374;2023-05-07T08:04:00;15.93;;;8.88;;
27957;SDS011;15295;42.658;23.374;2023-05-07T08:06:28;14.90;;;9.40;;
27957;SDS011;15295;42.658;23.374;2023-05-07T08:08:54;17.20;;;10.50;;
27957;SDS011;15295;42.658;23.374;2023-05-07T08:11:20;15.52;;;10.68;;
27957;SDS011;15295;42.658;23.374;2023-05-07T08:13:46;16.08;;;10.38;;
27957;SDS011;15295;42.658;23.374;2023-05-07T08:16:12;18.20;;;10.68;;
27957;SDS011;15295;42.658;23.374;2023-05-07T08:18:37;20.27;;;10.63;;
27957;SDS011;15295;42.658;23.374;2023-05-07T08:23:58;21.70;;;12.95;;
27957;SDS011;15295;42.658;23.374;2023-05-07T08:26:24;15.90;;;10.50;;
27957;SDS011;15295;42.658;23.374;2023-05-07T08:28:49;23.00;;;13.05;;
27957;SDS011;15295;42.658;23.374;2023-05-07T08:31:15;20.35;;;11.35;;
27957;SDS011;15295;42.658;23.374;2023-05-07T08:33:41;15.05;;;10.90;;
27957;SDS011;15295;42.658;23.374;2023-05-07T08:36:06;18.27;;;10.02;;
27957;SDS011;15295;42.658;23.374;2023-05-07T08:38:32;15.05;;;9.48;;
27957;SDS011;15295;42.658;23.374;2023-05-07T08:40:58;15.35;;;11.27;;
27957;SDS011;15295;42.658;23.374;2023-05-07T08:43:24;18.42;;;10.98;;
27957;SDS011;15295;42.658;23.374;2023-05-07T08:45:53;15.93;;;9.15;;
27957;SDS011;15295;42.658;23.374;2023-05-07T08:48:22;9.80;;;7.93;;
27957;SDS011;15295;42.658;23.374;2023-05-07T08:50:51;13.60;;;7.55;;
27957;SDS011;15295;42.658;23.374;2023-05-07T08:53:17;9.70;;;6.88;;
27957;SDS011;15295;42.658;23.374;2023-05-07T08:55:43;9.85;;;6.47;;
27957;SDS011;15295;42.658;23.374;2023-05-07T08:58:08;9.93;;;6.57;;
27957;SDS011;15295;42.658;23.374;2023-05-07T09:00:34;12.30;;;7.97;;
27957;SDS011;15295;42.658;23.374;2023-05-07T09:03:02;18.52;;;10.13;;
27957;SDS011;15295;42.658;23.374;2023-05-07T09:05:27;10.32;;;5.70;;
27957;SDS011;15295;42.658;23.374;2023-05-07T09:10:25;12.90;;;6.32;;
27957;SDS011;15295;42.658;23.374;2023-05-07T09:12:51;12.88;;;5.95;;
27957;SDS011;15295;42.658;23.374;2023-05-07T09:15:16;10.43;;;6.90;;
27957;SDS011;15295;42.658;23.374;2023-05-07T09:17:43;15.45;;;8.35;;
27957;SDS011;15295;42.658;23.374;2023-05-07T09:20:08;10.98;;;6.50;;
27957;SDS011;15295;42.658;23.374;2023-05-07T09:22:37;10.85;;;5.53;;
27957;SDS011;15295;42.658;23.374;2023-05-07T09:25:03;8.98;;;6.45;;
27957;SDS011;15295;42.658;23.374;2023-05-07T09:27:30;10.25;;;6.20;;
27957;SDS011;15295;42.658;23.374;2023-05-07T09:29:55;10.43;;;7.18;;
27957;SDS011;15295;42.658;23.374;2023-05-07T09:32:21;10.95;;;6.10;;
27957;SDS011;15295;42.658;23.374;2023-05-07T09:34:46;10.00;;;6.20;;
27957;SDS011;15295;42.658;23.374;2023-05-07T09:37:13;11.25;;;6.68;;
27957;SDS011;15295;42.658;23.374;2023-05-07T09:42:11;10.07;;;6.03;;
27957;SDS011;15295;42.658;23.374;2023-05-07T09:44:37;9.32;;;5.47;;
27957;SDS011;15295;42.658;23.374;2023-05-07T09:47:06;7.45;;;5.80;;
27957;SDS011;15295;42.658;23.374;2023-05-07T09:49:36;7.60;;;5.70;;
27957;SDS011;15295;42.658;23.374;2023-05-07T09:52:03;8.93;;;5.28;;
27957;SDS011;15295;42.658;23.374;2023-05-07T09:54:36;9.15;;;5.05;;
27957;SDS011;15295;42.658;23.374;2023-05-07T09:57:05;10.35;;;5.30;;
27957;SDS011;15295;42.658;23.374;2023-05-07T09:59:32;8.73;;;5.40;;
27957;SDS011;15295;42.658;23.374;2023-05-07T10:02:05;7.68;;;4.97;;
27957;SDS011;15295;42.658;23.374;2023-05-07T10:04:32;6.30;;;5.20;;
27957;SDS011;15295;42.658;23.374;2023-05-07T10:06:59;8.27;;;5.30;;
27957;SDS011;15295;42.658;23.374;2023-05-07T10:09:26;7.30;;;5.60;;
27957;SDS011;15295;42.658;23.374;2023-05-07T10:11:52;6.90;;;4.82;;
27957;SDS011;15295;42.658;23.374;2023-05-07T10:14:20;7.07;;;4.65;;
27957;SDS011;15295;42.658;23.374;2023-05-07T10:16:46;7.57;;;4.03;;
27957;SDS011;15295;42.658;23.374;2023-05-07T10:19:13;7.40;;;5.38;;
27957;SDS011;15295;42.658;23.374;2023-05-07T10:21:44;9.20;;;5.45;;
27957;SDS011;15295;42.658;23.374;2023-05-07T10:24:25;11.23;;;6.93;;
27957;SDS011;15295;42.658;23.374;2023-05-07T10:26:52;8.57;;;6.00;;
27957;SDS011;15295;42.658;23.374;2023-05-07T10:29:21;7.78;;;4.82;;
27957;SDS011;15295;42.658;23.374;2023-05-07T10:35:23;11.95;;;5.45;;
27957;SDS011;15295;42.658;23.374;2023-05-07T10:37:51;8.07;;;6.45;;
27957;SDS011;15295;42.658;23.374;2023-05-07T10:40:17;9.95;;;5.72;;
27957;SDS011;15295;42.658;23.374;2023-05-07T10:45:36;4.72;;;4.13;;
27957;SDS011;15295;42.658;23.374;2023-05-07T10:48:09;10.57;;;4.65;;
27957;SDS011;15295;42.658;23.374;2023-05-07T10:50:35;11.05;;;5.35;;
27957;SDS011;15295;42.658;23.374;2023-05-07T10:56:24;5.28;;;4.60;;
27957;SDS011;15295;42.658;23.374;2023-05-07T10:58:50;6.15;;;4.38;;
27957;SDS011;15295;42.658;23.374;2023-05-07T11:04:24;9.23;;;4.82;;
27957;SDS011;15295;42.658;23.374;2023-05-07T11:10:13;6.80;;;4.38;;
27957;SDS011;15295;42.658;23.374;2023-05-07T11:15:37;13.20;;;7.18;;
27957;SDS011;15295;42.658;23.374;2023-05-07T11:18:06;5.45;;;4.57;;
27957;SDS011;15295;42.658;23.374;2023-05-07T11:20:45;8.32;;;5.25;;
27957;SDS011;15295;42.658;23.374;2023-05-07T11:26:00;9.30;;;4.22;;
27957;SDS011;15295;42.658;23.374;2023-05-07T11:28:28;7.05;;;3.97;;
27957;SDS011;15295;42.658;23.374;2023-05-07T11:30:55;8.75;;;4.05;;
27957;SDS011;15295;42.658;23.374;2023-05-07T11:33:25;8.77;;;4.50;;
27957;SDS011;15295;42.658;23.374;2023-05-07T11:35:55;8.63;;;5.15;;
27957;SDS011;15295;42.658;23.374;2023-05-07T11:38:21;8.65;;;4.47;;
27957;SDS011;15295;42.658;23.374;2023-05-07T11:40:50;5.55;;;4.18;;
27957;SDS011;15295;42.658;23.374;2023-05-07T11:43:22;6.03;;;4.03;;
27957;SDS011;15295;42.658;23.374;2023-05-07T11:45:48;5.80;;;4.25;;
27957;SDS011;15295;42.658;23.374;2023-05-07T11:48:15;6.53;;;4.53;;
27957;SDS011;15295;42.658;23.374;2023-05-07T11:51:01;6.10;;;4.40;;
27957;SDS011;15295;42.658;23.374;2023-05-07T11:53:35;5.68;;;4.00;;
27957;SDS011;15295;42.658;23.374;2023-05-07T11:56:09;8.57;;;4.63;;
27957;SDS011;15295;42.658;23.374;2023-05-07T11:58:36;5.80;;;4.50;;
27957;SDS011;15295;42.658;23.374;2023-05-07T12:01:02;6.40;;;4.65;;
27957;SDS011;15295;42.658;23.374;2023-05-07T12:03:42;6.82;;;4.53;;
27957;SDS011;15295;42.658;23.374;2023-05-07T12:06:10;6.82;;;5.22;;
27957;SDS011;15295;42.658;23.374;2023-05-07T12:08:37;8.30;;;4.80;;
27957;SDS011;15295;42.658;23.374;2023-05-07T12:11:06;10.73;;;5.07;;
27957;SDS011;15295;42.658;23.374;2023-05-07T12:13:36;9.38;;;4.53;;
27957;SDS011;15295;42.658;23.374;2023-05-07T12:21:12;8.35;;;4.80;;
27957;SDS011;15295;42.658;23.374;2023-05-07T12:23:38;5.32;;;4.25;;
27957;SDS011;15295;42.658;23.374;2023-05-07T12:26:05;5.28;;;4.53;;
27957;SDS011;15295;42.658;23.374;2023-05-07T12:28:31;13.07;;;6.90;;
27957;SDS011;15295;42.658;23.374;2023-05-07T12:31:03;8.60;;;5.72;;
27957;SDS011;15295;42.658;23.374;2023-05-07T12:33:30;7.60;;;4.63;;
27957;SDS011;15295;42.658;23.374;2023-05-07T12:38:35;6.78;;;3.95;;
27957;SDS011;15295;42.658;23.374;2023-05-07T12:41:02;8.70;;;4.30;;
27957;SDS011;15295;42.658;23.374;2023-05-07T12:43:33;7.15;;;4.20;;
27957;SDS011;15295;42.658;23.374;2023-05-07T12:46:05;5.93;;;4.07;;
27957;SDS011;15295;42.658;23.374;2023-05-07T12:48:44;10.82;;;4.82;;
27957;SDS011;15295;42.658;23.374;2023-05-07T12:51:12;8.27;;;5.00;;
27957;SDS011;15295;42.658;23.374;2023-05-07T12:56:24;6.32;;;4.65;;
27957;SDS011;15295;42.658;23.374;2023-05-07T12:58:49;4.80;;;3.47;;
27957;SDS011;15295;42.658;23.374;2023-05-07T13:01:18;6.13;;;3.58;;
27957;SDS011;15295;42.658;23.374;2023-05-07T13:03:48;4.78;;;2.90;;
27957;SDS011;15295;42.658;23.374;2023-05-07T13:06:18;6.10;;;4.05;;
27957;SDS011;15295;42.658;23.374;2023-05-07T13:08:44;6.75;;;3.33;;
27957;SDS011;15295;42.658;23.374;2023-05-07T13:11:26;9.07;;;3.53;;
27957;SDS011;15295;42.658;23.374;2023-05-07T13:13:59;7.47;;;3.50;;
27957;SDS011;15295;42.658;23.374;2023-05-07T13:16:24;4.57;;;3.30;;
27957;SDS011;15295;42.658;23.374;2023-05-07T13:18:49;6.03;;;3.10;;
27957;SDS011;15295;42.658;23.374;2023-05-07T13:21:18;5.25;;;3.08;;
27957;SDS011;15295;42.658;23.374;2023-05-07T13:23:55;3.80;;;3.38;;
27957;SDS011;15295;42.658;23.374;2023-05-07T13:26:20;5.25;;;3.20;;
27957;SDS011;15295;42.658;23.374;2023-05-07T13:28:46;8.40;;;3.80;;
27957;SDS011;15295;42.658;23.374;2023-05-07T13:31:14;3.72;;;3.38;;
27957;SDS011;15295;42.658;23.374;2023-05-07T13:36:15;5.43;;;3.30;;
27957;SDS011;15295;42.658;23.374;2023-05-07T13:38:43;8.38;;;3.33;;
27957;SDS011;15295;42.658;23.374;2023-05-07T13:41:10;5.00;;;3.38;;
27957;SDS011;15295;42.658;23.374;2023-05-07T13:43:40;6.32;;;4.47;;
27957;SDS011;15295;42.658;23.374;2023-05-07T13:46:07;5.63;;;3.60;;
27957;SDS011;15295;42.658;23.374;2023-05-07T13:48:33;4.57;;;3.30;;
27957;SDS011;15295;42.658;23.374;2023-05-07T13:50:58;5.47;;;3.65;;
27957;SDS011;15295;42.658;23.374;2023-05-07T13:53:24;7.82;;;3.53;;
27957;SDS011;15295;42.658;23.374;2023-05-07T13:55:50;5.15;;;3.28;;
27957;SDS011;15295;42.658;23.374;2023-05-07T13:58:15;4.60;;;3.50;;
27957;SDS011;15295;42.658;23.374;2023-05-07T14:00:41;6.47;;;3.38;;
27957;SDS011;15295;42.658;23.374;2023-05-07T14:03:06;7.22;;;3.60;;
27957;SDS011;15295;42.658;23.374;2023-05-07T14:05:32;5.45;;;3.75;;
27957;SDS011;15295;42.658;23.374;2023-05-07T14:07:57;7.55;;;3.80;;
27957;SDS011;15295;42.658;23.374;2023-05-07T14:10:23;5.00;;;3.70;;
27957;SDS011;15295;42.658;23.374;2023-05-07T14:12:49;4.45;;;3.30;;
27957;SDS011;15295;42.658;23.374;2023-05-07T14:15:29;6.43;;;3.67;;
27957;SDS011;15295;42.658;23.374;2023-05-07T14:17:54;5.07;;;3.35;;
27957;SDS011;15295;42.658;23.374;2023-05-07T14:20:20;4.35;;;3.33;;
27957;SDS011;15295;42.658;23.374;2023-05-07T14:22:50;6.03;;;3.55;;
27957;SDS011;15295;42.658;23.374;2023-05-07T14:25:32;5.72;;;3.20;;
27957;SDS011;15295;42.658;23.374;2023-05-07T14:27:57;4.07;;;3.38;;
27957;SDS011;15295;42.658;23.374;2023-05-07T14:30:22;5.47;;;3.53;;
27957;SDS011;15295;42.658;23.374;2023-05-07T14:32:49;7.93;;;3.63;;
27957;SDS011;15295;42.658;23.374;2023-05-07T14:35:15;4.20;;;3.67;;
27957;SDS011;15295;42.658;23.374;2023-05-07T14:37:41;5.28;;;3.72;;
27957;SDS011;15295;42.658;23.374;2023-05-07T14:40:07;7.65;;;5.78;;
27957;SDS011;15295;42.658;23.374;2023-05-07T14:42:33;7.32;;;5.90;;
27957;SDS011;15295;42.658;23.374;2023-05-07T14:48:40;5.13;;;3.45;;
27957;SDS011;15295;42.658;23.374;2023-05-07T14:51:05;10.48;;;3.60;;
27957;SDS011;15295;42.658;23.374;2023-05-07T14:53:31;17.20;;;11.75;;
27957;SDS011;15295;42.658;23.374;2023-05-07T14:58:31;9.95;;;3.97;;
27957;SDS011;15295;42.658;23.374;2023-05-07T15:00:57;5.88;;;3.38;;
27957;SDS011;15295;42.658;23.374;2023-05-07T15:03:23;4.07;;;3.40;;
27957;SDS011;15295;42.658;23.374;2023-05-07T15:08:36;6.63;;;3.70;;
27957;SDS011;15295;42.658;23.374;2023-05-07T15:11:02;4.93;;;3.35;;
27957;SDS011;15295;42.658;23.374;2023-05-07T15:13:27;8.43;;;3.75;;
27957;SDS011;15295;42.658;23.374;2023-05-07T15:19:14;9.40;;;4.65;;
27957;SDS011;15295;42.658;23.374;2023-05-07T15:21:41;4.82;;;3.70;;
27957;SDS011;15295;42.658;23.374;2023-05-07T15:24:07;5.32;;;3.72;;
27957;SDS011;15295;42.658;23.374;2023-05-07T15:26:34;4.38;;;3.92;;